Wytheville, Virginia
Current Conditions -  °F | °C
As of 8:55 PM on Sunday 21 Dec 2014 (Local Time) from KMKJ Reporting Station
Overcast Overcast  
Wind Chill:   Ceiling: 1900
Heat Index:   Visibility: 10mi
Dew Point:   Wind: 6mph
Humidity: 82%   Direction: 70°ENE
Pressure: 30.17"   Gusts: NA
Location:  36.95°N, 81.08°W
Report Text: KMKJ 220155Z AUTO 07005KT 10SM OVC019 04/01 A3017 RMK AO2 T00390010
Loading
Personal Weather Stations






























Interactive Weather Map New forecast layout! Learn more

10-Day Weather Forecast

Advertisements
Track Severe Weather on mobile